Time;durP1;ratioP1;P1;durP2;ratioP2;P2;SDS_P1;SDS_P2;PMS_P1;PMS_P2;Temp;Humidity;BMP_temperature;BMP_pressure;BME280_temperature;BME280_humidity;BME280_pressure;Samples;Min_cycle;Max_cycle;Signal;HPM_P1;HPM_P2
2022/10/01 00:00:08;;;;;;;;;;;9.80;99.90;10.20;99628.00;;;;332192;29;96039;-90
2022/10/01 00:00:20;;;;;;;;;;;9.80;99.90;10.10;99625.00;;;;331619;29;83484;-90
2022/10/01 00:00:32;;;;;;;;;;;9.80;99.90;10.10;99636.00;;;;330908;29;96604;-90
2022/10/01 00:00:47;;;;;;;;;;;9.80;99.90;10.10;99633.00;;;;332908;29;83443;-90
2022/10/01 00:00:59;;;;;;;;;;;9.80;99.90;10.20;99631.00;;;;332102;29;96051;-90
2022/10/01 00:01:12;;;;;;;;;;;9.80;99.90;10.30;99637.00;;;;335534;29;83298;-90
2022/10/01 00:01:24;;;;;;;;;;;9.80;99.90;10.30;99627.00;;;;332275;29;96581;-90
2022/10/01 00:01:36;;;;;;;;;;;9.80;99.90;10.30;99623.00;;;;331577;29;83430;-90
2022/10/01 00:01:48;;;;;;;;;;;9.80;99.90;10.30;99633.00;;;;333209;29;95313;-90
2022/10/01 00:02:00;;;;;;;;;;;9.80;99.90;10.30;99629.00;;;;332723;29;83508;-89
2022/10/01 00:02:12;;;;;;;;;;;9.80;99.90;10.30;99634.00;;;;332102;29;96114;-90
2022/10/01 00:02:24;;;;;;;;;;;9.80;99.90;10.30;99634.00;;;;333965;29;83571;-90
2022/10/01 00:02:37;;;;;;;;;;;9.80;99.90;10.30;99630.00;;;;333215;29;95723;-90
2022/10/01 00:02:49;;;;;;;;;;;9.80;99.90;10.30;99631.00;;;;331386;29;83581;-90
2022/10/01 00:03:01;;;;;;;;;;;9.80;99.90;10.40;99634.00;;;;330651;29;94617;-90
2022/10/01 00:03:12;;;;;;;;;;;9.90;99.90;10.50;99628.00;;;;331684;29;83324;-90
2022/10/01 00:03:25;;;;;;;;;;;9.90;99.90;10.40;99628.00;;;;330886;29;96023;-90
2022/10/01 00:03:37;;;;;;;;;;;9.90;99.90;10.40;99637.00;;;;331624;29;83526;-90
2022/10/01 00:03:49;;;;;;;;;;;9.80;99.90;10.40;99632.00;;;;329495;29;96464;-90
2022/10/01 00:04:01;;;;;;;;;;;9.90;99.90;10.40;99630.00;;;;332943;29;83429;-90
2022/10/01 00:04:12;;;;;;;;;;;9.90;99.90;10.40;99638.00;;;;330924;29;95308;-90
2022/10/01 00:04:25;;;;;;;;;;;9.90;99.90;10.30;99626.00;;;;327804;29;83643;-90
2022/10/01 00:04:38;;;;;;;;;;;9.90;99.90;10.20;99625.00;;;;329600;29;96393;-90
2022/10/01 00:04:50;;;;;;;;;;;9.90;99.90;10.20;99633.00;;;;332750;29;82636;-90
2022/10/01 00:05:02;;;;;;;;;;;9.80;99.90;10.30;99632.00;;;;331877;29;95887;-89
2022/10/01 00:05:13;;;;;;;;;;;9.90;99.90;10.20;99641.00;;;;334212;29;83456;-90
2022/10/01 00:05:25;;;;;;;;;;;9.90;99.90;10.20;99633.00;;;;333490;29;96618;-90
2022/10/01 00:05:37;;;;;;;;;;;9.90;99.90;10.20;99637.00;;;;332874;29;84362;-90
2022/10/01 00:06:01;;;;;;;;;;;9.90;99.90;10.20;99635.00;;;;332022;29;97880;-90
2022/10/01 00:06:16;;;;;;;;;;;9.90;99.90;10.30;99641.00;;;;334184;29;83578;-90
2022/10/01 00:06:28;;;;;;;;;;;9.80;99.90;10.30;99639.00;;;;334561;29;96671;-90
2022/10/01 00:06:39;;;;;;;;;;;9.90;99.90;10.30;99636.00;;;;332926;29;83483;-90
2022/10/01 00:06:51;;;;;;;;;;;9.80;99.90;10.20;99639.00;;;;333124;29;97687;-89
2022/10/01 00:07:08;;;;;;;;;;;9.80;99.90;10.20;99632.00;;;;331277;29;82690;-90
2022/10/01 00:07:19;;;;;;;;;;;9.80;99.90;10.20;99630.00;;;;332167;29;96608;-90
2022/10/01 00:07:38;;;;;;;;;;;9.80;99.90;10.20;99638.00;;;;334321;29;83514;-90
2022/10/01 00:07:50;;;;;;;;;;;9.80;99.90;10.20;99634.00;;;;333337;29;96725;-89
2022/10/01 00:08:01;;;;;;;;;;;9.80;99.90;10.20;99629.00;;;;332887;29;83419;-90
2022/10/01 00:08:14;;;;;;;;;;;9.80;99.90;10.10;99634.00;;;;331748;29;97501;-90
2022/10/01 00:08:27;;;;;;;;;;;9.80;99.90;10.10;99632.00;;;;335482;29;83423;-90
2022/10/01 00:08:39;;;;;;;;;;;9.80;99.90;10.10;99632.00;;;;329655;29;95213;-90
2022/10/01 00:08:51;;;;;;;;;;;9.80;99.90;10.10;99638.00;;;;331624;29;83506;-90
2022/10/01 00:09:03;;;;;;;;;;;9.80;99.90;10.10;99639.00;;;;329559;29;95771;-90
2022/10/01 00:09:14;;;;;;;;;;;9.80;99.90;10.10;99635.00;;;;331676;29;82571;-90
2022/10/01 00:09:26;;;;;;;;;;;9.80;99.90;10.10;99631.00;;;;332214;29;95678;-90
2022/10/01 00:09:38;;;;;;;;;;;9.80;99.90;10.10;99633.00;;;;331735;29;82582;-90
2022/10/01 00:09:50;;;;;;;;;;;9.80;99.90;10.10;99628.00;;;;333372;29;95898;-90
2022/10/01 00:10:01;;;;;;;;;;;9.80;99.90;10.00;99630.00;;;;332918;29;83537;-90
2022/10/01 00:10:13;;;;;;;;;;;9.80;99.90;10.00;99626.00;;;;329565;29;97792;-90
2022/10/01 00:10:25;;;;;;;;;;;9.80;99.90;10.10;99632.00;;;;331582;29;82602;-90
2022/10/01 00:10:40;;;;;;;;;;;9.80;99.90;10.10;99635.00;;;;329643;29;96654;-90
2022/10/01 00:10:52;;;;;;;;;;;9.80;99.90;10.30;99631.00;;;;330241;29;82586;-90
2022/10/01 00:11:11;;;;;;;;;;;9.80;99.90;10.40;99633.00;;;;330924;29;92979;-90
2022/10/01 00:11:24;;;;;;;;;;;9.80;99.90;10.40;99630.00;;;;332967;29;82598;-90
2022/10/01 00:11:36;;;;;;;;;;;9.80;99.90;10.40;99626.00;;;;333469;29;96437;-90
2022/10/01 00:11:47;;;;;;;;;;;9.80;99.90;10.30;99629.00;;;;332768;29;82592;-90
2022/10/01 00:11:59;;;;;;;;;;;9.80;99.90;10.30;99631.00;;;;330607;29;96449;-90
2022/10/01 00:12:15;;;;;;;;;;;9.80;99.90;10.20;99627.00;;;;335532;29;82520;-90
2022/10/01 00:12:27;;;;;;;;;;;9.80;99.90;10.10;99626.00;;;;329587;29;96398;-90
2022/10/01 00:12:43;;;;;;;;;;;9.80;99.90;10.20;99634.00;;;;331743;29;83518;-90
2022/10/01 00:12:55;;;;;;;;;;;9.80;99.90;10.20;99629.00;;;;333333;29;96691;-90
2022/10/01 00:13:07;;;;;;;;;;;9.80;99.90;10.20;99633.00;;;;334167;29;83561;-90
2022/10/01 00:13:19;;;;;;;;;;;9.80;99.90;10.30;99628.00;;;;333492;29;95200;-90
2022/10/01 00:13:30;;;;;;;;;;;9.80;99.90;10.20;99635.00;;;;331672;29;83500;-91
2022/10/01 00:13:43;;;;;;;;;;;9.80;99.90;10.20;99632.00;;;;332172;29;95929;-90
2022/10/01 00:13:54;;;;;;;;;;;9.80;99.90;10.20;99636.00;;;;334006;29;82589;-90
2022/10/01 00:14:07;;;;;;;;;;;9.80;99.90;10.30;99628.00;;;;332139;29;96483;-90
2022/10/01 00:14:18;;;;;;;;;;;9.80;99.90;10.20;99631.00;;;;332813;29;83519;-90
2022/10/01 00:14:30;;;;;;;;;;;9.80;99.90;10.10;99622.00;;;;333370;29;97702;-90
2022/10/01 00:14:43;;;;;;;;;;;9.80;99.90;10.10;99627.00;;;;331604;29;83581;-90
2022/10/01 00:14:55;;;;;;;;;;;9.80;99.90;10.10;99627.00;;;;330349;29;97219;-90
2022/10/01 00:15:08;;;;;;;;;;;9.80;99.90;10.10;99625.00;;;;331621;29;83421;-90
2022/10/01 00:15:25;;;;;;;;;;;9.80;99.90;10.20;99625.00;;;;334778;29;96303;-91
2022/10/01 00:15:39;;;;;;;;;;;9.80;99.90;10.30;99627.00;;;;334276;29;82528;-90
2022/10/01 00:15:52;;;;;;;;;;;9.80;99.90;10.30;99626.00;;;;330803;29;96690;-90
2022/10/01 00:16:07;;;;;;;;;;;9.80;99.90;10.30;99632.00;;;;330329;29;83484;-90
2022/10/01 00:16:21;;;;;;;;;;;9.80;99.90;10.20;99627.00;;;;331934;29;95414;-90
2022/10/01 00:16:33;;;;;;;;;;;9.80;99.90;10.20;99632.00;;;;335553;29;82504;-90
2022/10/01 00:16:45;;;;;;;;;;;9.70;99.90;10.20;99620.00;;;;333511;29;95318;-89
2022/10/01 00:16:57;;;;;;;;;;;9.80;99.90;10.20;99628.00;;;;332740;29;83538;-90
2022/10/01 00:17:09;;;;;;;;;;;9.80;99.90;10.20;99626.00;;;;332172;29;96409;-90
2022/10/01 00:17:20;;;;;;;;;;;9.80;99.90;10.30;99623.00;;;;334304;29;83499;-90
2022/10/01 00:17:32;;;;;;;;;;;9.80;99.90;10.30;99624.00;;;;331950;29;98033;-90
2022/10/01 00:17:44;;;;;;;;;;;9.80;99.90;10.20;99625.00;;;;332831;29;82581;-90
2022/10/01 00:17:56;;;;;;;;;;;9.80;99.90;10.20;99623.00;;;;332106;29;93878;-90
2022/10/01 00:18:09;;;;;;;;;;;9.80;99.90;10.20;99622.00;;;;331737;29;83528;-90
2022/10/01 00:18:21;;;;;;;;;;;9.80;99.90;10.10;99617.00;;;;332141;29;96252;-90
2022/10/01 00:18:37;;;;;;;;;;;9.80;99.90;10.10;99626.00;;;;334192;29;83520;-90
2022/10/01 00:18:49;;;;;;;;;;;9.80;99.90;10.10;99616.00;;;;332046;29;97423;-90
2022/10/01 00:19:01;;;;;;;;;;;9.80;99.90;10.10;99617.00;;;;334131;29;82650;-90
2022/10/01 00:19:13;;;;;;;;;;;9.80;99.90;10.10;99617.00;;;;333400;29;96863;-90
2022/10/01 00:19:25;;;;;;;;;;;9.80;99.90;10.20;99621.00;;;;332903;29;83508;-90
2022/10/01 00:19:37;;;;;;;;;;;9.80;99.90;10.20;99615.00;;;;333109;29;95947;-90
2022/10/01 00:19:49;;;;;;;;;;;9.80;99.90;10.30;99617.00;;;;331453;29;83503;-90
2022/10/01 00:20:02;;;;;;;;;;;9.80;99.90;10.30;99618.00;;;;333071;29;95665;-90
2022/10/01 00:20:24;;;;;;;;;;;9.80;99.90;10.40;99622.00;;;;334247;29;83540;-90
2022/10/01 00:20:42;;;;;;;;;;;9.80;99.90;10.20;99622.00;;;;333234;29;95610;-89
2022/10/01 00:20:54;;;;;;;;;;;9.80;99.90;10.20;99625.00;;;;333983;29;83505;-90
2022/10/01 00:21:13;;;;;;;;;;;9.80;99.90;10.20;99618.00;;;;330808;29;97641;-90
2022/10/01 00:21:30;;;;;;;;;;;9.80;99.90;10.20;99627.00;;;;332944;29;83469;-90
2022/10/01 00:21:42;;;;;;;;;;;9.80;99.90;10.40;99622.00;;;;333506;29;93013;-90
2022/10/01 00:21:54;;;;;;;;;;;9.80;99.90;10.40;99621.00;;;;332609;29;83542;-90
2022/10/01 00:22:05;;;;;;;;;;;9.80;99.90;10.30;99612.00;;;;332201;29;92943;-90
2022/10/01 00:22:17;;;;;;;;;;;9.80;99.90;10.30;99616.00;;;;332869;29;83537;-90
2022/10/01 00:22:33;;;;;;;;;;;9.80;99.90;10.20;99623.00;;;;333571;29;95452;-90
2022/10/01 00:22:46;;;;;;;;;;;9.80;99.90;10.10;99615.00;;;;332856;29;82528;-90
2022/10/01 00:22:58;;;;;;;;;;;9.80;99.90;10.20;99625.00;;;;329446;29;96885;-90
2022/10/01 00:23:10;;;;;;;;;;;9.80;99.90;10.20;99623.00;;;;334263;29;82346;-90
2022/10/01 00:23:22;;;;;;;;;;;9.80;99.90;10.30;99614.00;;;;330856;29;96285;-89
2022/10/01 00:23:33;;;;;;;;;;;9.80;99.90;10.30;99616.00;;;;331612;29;83426;-90
2022/10/01 00:23:45;;;;;;;;;;;9.80;99.90;10.30;99611.00;;;;332116;29;96986;-90
2022/10/01 00:24:03;;;;;;;;;;;9.80;99.90;10.30;99622.00;;;;332861;29;82534;-90
2022/10/01 00:24:15;;;;;;;;;;;9.80;99.90;10.30;99619.00;;;;332056;29;95746;-90
2022/10/01 00:24:27;;;;;;;;;;;9.80;99.90;10.40;99615.00;;;;330305;29;83498;-90
2022/10/01 00:24:39;;;;;;;;;;;9.80;99.90;10.30;99610.00;;;;330936;29;96909;-90
2022/10/01 00:24:51;;;;;;;;;;;9.80;99.90;10.30;99619.00;;;;331301;29;82626;-90
2022/10/01 00:25:03;;;;;;;;;;;9.80;99.90;10.20;99624.00;;;;333204;29;95765;-90
2022/10/01 00:25:15;;;;;;;;;;;9.80;99.90;10.20;99621.00;;;;330367;29;83584;-90
2022/10/01 00:25:27;;;;;;;;;;;9.80;99.90;10.10;99612.00;;;;330876;29;96685;-90
2022/10/01 00:25:38;;;;;;;;;;;9.80;99.90;10.20;99627.00;;;;333995;29;83567;-90
2022/10/01 00:25:51;;;;;;;;;;;9.80;99.90;10.10;99620.00;;;;330690;29;97110;-90
2022/10/01 00:26:16;;;;;;;;;;;9.80;99.90;10.00;99622.00;;;;331514;29;82680;-90
2022/10/01 00:26:29;;;;;;;;;;;9.80;99.90;10.20;99617.00;;;;332147;29;96444;-90
2022/10/01 00:26:41;;;;;;;;;;;9.80;99.90;10.10;99617.00;;;;331586;29;83760;-90
2022/10/01 00:26:53;;;;;;;;;;;9.80;99.90;9.90;99615.00;;;;332116;29;96441;-90
2022/10/01 00:27:05;;;;;;;;;;;9.80;99.90;9.80;99622.00;;;;332747;29;83522;-90
2022/10/01 00:27:17;;;;;;;;;;;9.80;99.90;9.80;99622.00;;;;332152;29;96597;-91
2022/10/01 00:27:28;;;;;;;;;;;9.70;99.90;9.80;99621.00;;;;334249;29;83536;-90
2022/10/01 00:27:44;;;;;;;;;;;9.70;99.90;9.80;99628.00;;;;332067;29;96863;-90
2022/10/01 00:27:56;;;;;;;;;;;9.70;99.90;9.80;99619.00;;;;332830;29;82521;-90
2022/10/01 00:28:07;;;;;;;;;;;9.70;99.90;9.80;99629.00;;;;332169;29;96434;-90
2022/10/01 00:28:20;;;;;;;;;;;9.70;99.90;9.80;99630.00;;;;334113;29;82593;-90
2022/10/01 00:28:32;;;;;;;;;;;9.70;99.90;9.80;99624.00;;;;333251;29;95887;-90
2022/10/01 00:28:45;;;;;;;;;;;9.70;99.90;9.80;99624.00;;;;330475;29;82507;-90
2022/10/01 00:28:58;;;;;;;;;;;9.60;99.90;9.90;99626.00;;;;330576;29;95490;-90
2022/10/01 00:29:13;;;;;;;;;;;9.70;99.90;10.00;99626.00;;;;332816;29;83548;-90
2022/10/01 00:29:25;;;;;;;;;;;9.70;99.90;9.90;99633.00;;;;332168;29;96163;-90
2022/10/01 00:29:37;;;;;;;;;;;9.60;99.90;10.00;99630.00;;;;335445;29;83494;-90
2022/10/01 00:29:49;;;;;;;;;;;9.60;99.90;10.00;99623.00;;;;330817;29;97014;-90
2022/10/01 00:30:03;;;;;;;;;;;9.60;99.90;10.00;99625.00;;;;334174;29;83413;-90
2022/10/01 00:30:15;;;;;;;;;;;9.60;99.90;10.00;99625.00;;;;332145;29;95357;-90
2022/10/01 00:30:26;;;;;;;;;;;9.60;99.90;10.10;99630.00;;;;330356;29;82622;-90
2022/10/01 00:30:45;;;;;;;;;;;9.60;99.90;10.10;99630.00;;;;332168;29;96936;-89
2022/10/01 00:30:57;;;;;;;;;;;9.60;99.90;10.10;99635.00;;;;334077;29;82581;-90
2022/10/01 00:31:09;;;;;;;;;;;9.70;99.90;10.10;99629.00;;;;330657;29;96726;-89
2022/10/01 00:31:21;;;;;;;;;;;9.70;99.90;10.00;99636.00;;;;331549;29;82692;-90
2022/10/01 00:31:33;;;;;;;;;;;9.60;99.90;10.00;99632.00;;;;330621;29;96787;-90
2022/10/01 00:31:45;;;;;;;;;;;9.60;99.90;9.90;99629.00;;;;332927;29;83413;-90
2022/10/01 00:31:57;;;;;;;;;;;9.60;99.90;9.90;99636.00;;;;330751;29;96627;-90
2022/10/01 00:32:09;;;;;;;;;;;9.60;99.90;9.90;99633.00;;;;331526;29;82608;-90
2022/10/01 00:32:21;;;;;;;;;;;9.60;99.90;10.00;99635.00;;;;332128;29;95410;-90
2022/10/01 00:32:32;;;;;;;;;;;9.60;99.90;10.00;99634.00;;;;331497;29;83650;-90
2022/10/01 00:32:44;;;;;;;;;;;9.60;99.90;10.00;99632.00;;;;332085;29;96542;-90
2022/10/01 00:32:56;;;;;;;;;;;9.60;99.90;9.90;99631.00;;;;334136;29;83497;-90
2022/10/01 00:33:07;;;;;;;;;;;9.60;99.90;9.90;99637.00;;;;332117;29;94716;-90
2022/10/01 00:33:19;;;;;;;;;;;9.60;99.90;9.90;99636.00;;;;331631;29;82552;-90
2022/10/01 00:33:31;;;;;;;;;;;9.60;99.90;9.90;99634.00;;;;333483;29;96353;-91
2022/10/01 00:33:43;;;;;;;;;;;9.60;99.90;9.90;99634.00;;;;332936;29;82419;-90
2022/10/01 00:33:57;;;;;;;;;;;9.60;99.90;9.90;99632.00;;;;333401;29;97350;-90
2022/10/01 00:34:09;;;;;;;;;;;9.60;99.90;9.80;99631.00;;;;335534;29;83458;-90
2022/10/01 00:34:21;;;;;;;;;;;9.60;99.90;9.90;99633.00;;;;332069;29;96459;-90
2022/10/01 00:34:32;;;;;;;;;;;9.60;99.90;9.90;99627.00;;;;330458;29;82587;-90
2022/10/01 00:34:44;;;;;;;;;;;9.60;99.90;9.90;99638.00;;;;330802;29;95988;-90
2022/10/01 00:34:56;;;;;;;;;;;9.60;99.90;9.90;99628.00;;;;334036;29;83440;-90
2022/10/01 00:35:08;;;;;;;;;;;9.60;99.90;10.00;99632.00;;;;330860;29;95761;-90
2022/10/01 00:35:23;;;;;;;;;;;9.60;99.90;10.00;99624.00;;;;331913;29;83087;-90
2022/10/01 00:35:36;;;;;;;;;;;9.60;99.90;9.90;99632.00;;;;331282;29;96820;-90
2022/10/01 00:35:48;;;;;;;;;;;9.60;99.90;9.90;99634.00;;;;333267;29;84254;-90
2022/10/01 00:36:00;;;;;;;;;;;9.60;99.90;9.90;99630.00;;;;333724;29;96610;-90
2022/10/01 00:36:12;;;;;;;;;;;9.60;99.90;9.90;99632.00;;;;334594;29;83577;-90
2022/10/01 00:36:25;;;;;;;;;;;9.60;99.90;9.90;99624.00;;;;333846;29;95450;-89
2022/10/01 00:36:36;;;;;;;;;;;9.60;99.90;9.90;99631.00;;;;332090;29;82597;-90
2022/10/01 00:36:48;;;;;;;;;;;9.60;99.90;9.90;99633.00;;;;332523;29;96666;-90
2022/10/01 00:37:03;;;;;;;;;;;9.60;99.90;9.90;99622.00;;;;337227;28;83467;-90
2022/10/01 00:37:16;;;;;;;;;;;9.60;99.90;9.90;99629.00;;;;332588;29;96289;-90
2022/10/01 00:37:28;;;;;;;;;;;9.60;99.90;9.90;99626.00;;;;334524;29;82593;-90
2022/10/01 00:37:41;;;;;;;;;;;9.60;99.90;9.90;99627.00;;;;332563;29;93820;-90
2022/10/01 00:37:53;;;;;;;;;;;9.60;99.90;9.90;99635.00;;;;333071;29;83454;-90
2022/10/01 00:38:04;;;;;;;;;;;9.60;99.90;9.90;99629.00;;;;329793;29;96598;-89
2022/10/01 00:38:16;;;;;;;;;;;9.50;99.90;9.80;99627.00;;;;333318;29;82544;-90
2022/10/01 00:38:28;;;;;;;;;;;9.60;99.90;9.80;99628.00;;;;332591;29;96715;-90
2022/10/01 00:38:40;;;;;;;;;;;9.60;99.90;9.80;99628.00;;;;333339;29;82526;-90
2022/10/01 00:38:52;;;;;;;;;;;9.50;99.90;9.90;99631.00;;;;332504;29;96950;-90
2022/10/01 00:39:03;;;;;;;;;;;9.50;99.90;9.90;99627.00;;;;332010;29;82537;-90
2022/10/01 00:39:15;;;;;;;;;;;9.50;99.90;9.80;99630.00;;;;332587;29;96579;-90
2022/10/01 00:39:27;;;;;;;;;;;9.50;99.90;9.90;99633.00;;;;334715;29;82526;-90
2022/10/01 00:39:39;;;;;;;;;;;9.60;99.90;9.90;99629.00;;;;331205;29;95977;-90
2022/10/01 00:39:50;;;;;;;;;;;9.50;99.90;10.00;99636.00;;;;332988;29;83534;-90
2022/10/01 00:40:05;;;;;;;;;;;9.50;99.90;10.00;99628.00;;;;333445;29;95104;-90
2022/10/01 00:40:18;;;;;;;;;;;9.50;99.90;10.00;99627.00;;;;331512;29;83614;-89
2022/10/01 00:40:30;;;;;;;;;;;9.60;99.90;10.00;99633.00;;;;330814;29;95476;-90
2022/10/01 00:40:42;;;;;;;;;;;9.60;99.90;9.90;99634.00;;;;329209;29;83482;-90
2022/10/01 00:40:54;;;;;;;;;;;9.60;99.90;9.90;99637.00;;;;330908;29;94099;-90
2022/10/01 00:41:06;;;;;;;;;;;9.60;99.90;9.90;99642.00;;;;331659;29;82640;-90
2022/10/01 00:41:18;;;;;;;;;;;9.50;99.90;9.90;99637.00;;;;330927;29;96239;-90
2022/10/01 00:41:31;;;;;;;;;;;9.50;99.90;9.90;99637.00;;;;332755;29;82630;-90
2022/10/01 00:41:43;;;;;;;;;;;9.50;99.90;9.90;99645.00;;;;329625;29;96580;-90
2022/10/01 00:41:55;;;;;;;;;;;9.50;99.90;9.80;99641.00;;;;334185;29;83542;-90
2022/10/01 00:42:24;;;;;;;;;;;9.50;99.90;9.90;99647.00;;;;333381;29;96619;-90
2022/10/01 00:42:36;;;;;;;;;;;9.50;99.90;9.90;99641.00;;;;332989;29;83402;-90
2022/10/01 00:42:47;;;;;;;;;;;9.50;99.90;9.90;99643.00;;;;329650;29;96660;-90
2022/10/01 00:42:59;;;;;;;;;;;9.50;99.90;10.00;99640.00;;;;331308;29;83626;-90
2022/10/01 00:43:21;;;;;;;;;;;9.50;99.90;9.80;99648.00;;;;333483;29;97182;-91
2022/10/01 00:43:35;;;;;;;;;;;9.50;99.90;9.80;99646.00;;;;335409;29;83454;-90
2022/10/01 00:43:49;;;;;;;;;;;9.50;99.90;9.90;99643.00;;;;332212;29;96457;-90
2022/10/01 00:44:25;;;;;;;;;;;9.50;99.90;9.90;99649.00;;;;330517;29;82643;-90
2022/10/01 00:44:37;;;;;;;;;;;9.50;99.90;9.90;99642.00;;;;330777;29;96361;-90
2022/10/01 00:44:49;;;;;;;;;;;9.50;99.90;9.90;99644.00;;;;330388;29;82501;-89
2022/10/01 00:45:01;;;;;;;;;;;9.50;99.90;9.90;99640.00;;;;333216;29;97665;-90
2022/10/01 00:45:14;;;;;;;;;;;9.50;99.90;9.90;99645.00;;;;332846;29;83562;-90
2022/10/01 00:45:26;;;;;;;;;;;9.50;99.90;9.90;99647.00;;;;332183;29;96421;-90
2022/10/01 00:45:38;;;;;;;;;;;9.50;99.90;10.00;99645.00;;;;331533;29;83433;-90
2022/10/01 00:45:50;;;;;;;;;;;9.50;99.90;10.00;99642.00;;;;332058;29;96447;-90
2022/10/01 00:46:07;;;;;;;;;;;9.50;99.90;10.00;99641.00;;;;330256;29;83413;-89
2022/10/01 00:46:22;;;;;;;;;;;9.50;99.90;9.90;99647.00;;;;330876;29;96623;-90
2022/10/01 00:46:39;;;;;;;;;;;9.50;99.90;9.80;99645.00;;;;333988;29;82650;-90
2022/10/01 00:46:51;;;;;;;;;;;9.50;99.90;9.80;99646.00;;;;328367;29;95771;-90
2022/10/01 00:47:24;;;;;;;;;;;9.50;99.90;9.70;99647.00;;;;332922;29;82604;-90
2022/10/01 00:47:43;;;;;;;;;;;9.50;99.90;9.80;99656.00;;;;333324;29;97541;-90
2022/10/01 00:47:55;;;;;;;;;;;9.50;99.90;9.90;99647.00;;;;331545;29;82638;-90
2022/10/01 00:48:06;;;;;;;;;;;9.50;99.90;10.00;99645.00;;;;330913;29;97045;-89
2022/10/01 00:48:19;;;;;;;;;;;9.60;99.90;10.00;99651.00;;;;332540;29;83326;-90
2022/10/01 00:48:33;;;;;;;;;;;9.50;99.90;9.90;99649.00;;;;330878;29;96599;-91
2022/10/01 00:49:09;;;;;;;;;;;9.50;99.90;9.90;99651.00;;;;334237;29;83431;-90
2022/10/01 00:49:23;;;;;;;;;;;9.50;99.90;9.90;99648.00;;;;330865;29;95538;-90
2022/10/01 00:49:35;;;;;;;;;;;9.50;99.90;9.90;99647.00;;;;334107;29;83464;-90
2022/10/01 00:49:47;;;;;;;;;;;9.50;99.90;9.80;99638.00;;;;333484;29;96948;-90
2022/10/01 00:50:17;;;;;;;;;;;9.50;99.90;9.70;99646.00;;;;332953;29;82531;-90
2022/10/01 00:50:32;;;;;;;;;;;9.50;99.90;9.80;99650.00;;;;334238;29;94745;-90
2022/10/01 00:50:43;;;;;;;;;;;9.50;99.90;9.80;99637.00;;;;335219;29;82561;-89
2022/10/01 00:50:55;;;;;;;;;;;9.50;99.90;9.90;99654.00;;;;331748;29;95259;-89
2022/10/01 00:51:07;;;;;;;;;;;9.50;99.90;9.80;99649.00;;;;334699;29;82545;-90
2022/10/01 00:51:19;;;;;;;;;;;9.50;99.90;9.90;99640.00;;;;331306;29;96922;-89
2022/10/01 00:51:33;;;;;;;;;;;9.50;99.90;9.90;99632.00;;;;329320;29;83545;-90
2022/10/01 00:51:47;;;;;;;;;;;9.50;99.90;9.80;99646.00;;;;330472;29;95578;-89
2022/10/01 00:52:01;;;;;;;;;;;9.50;99.90;9.90;99642.00;;;;332979;29;82574;-90
2022/10/01 00:52:17;;;;;;;;;;;9.50;99.90;9.90;99645.00;;;;333445;29;95035;-90
2022/10/01 00:52:29;;;;;;;;;;;9.50;99.90;10.10;99642.00;;;;333052;29;82612;-89
2022/10/01 00:52:42;;;;;;;;;;;9.50;99.90;10.00;99639.00;;;;330882;29;96795;-89
2022/10/01 00:52:55;;;;;;;;;;;9.50;99.90;9.90;99644.00;;;;332855;29;83488;-90
2022/10/01 00:53:12;;;;;;;;;;;9.50;99.90;9.90;99638.00;;;;333605;29;95482;-89
2022/10/01 00:53:23;;;;;;;;;;;9.50;99.90;9.90;99644.00;;;;333203;29;83458;-90
2022/10/01 00:53:36;;;;;;;;;;;9.50;99.90;9.90;99647.00;;;;332220;29;95814;-90
2022/10/01 00:53:48;;;;;;;;;;;9.50;99.90;9.80;99639.00;;;;335544;29;83567;-90
2022/10/01 00:54:11;;;;;;;;;;;9.50;99.90;9.90;99643.00;;;;331928;29;96651;-90
2022/10/01 00:54:30;;;;;;;;;;;9.50;99.90;9.90;99642.00;;;;331595;29;82646;-90
2022/10/01 00:54:48;;;;;;;;;;;9.50;99.90;9.90;99647.00;;;;333437;29;95578;-90
2022/10/01 00:55:04;;;;;;;;;;;9.50;99.90;9.90;99638.00;;;;332751;29;82535;-90
2022/10/01 00:55:21;;;;;;;;;;;9.50;99.90;9.80;99646.00;;;;332843;29;96487;-89
2022/10/01 00:55:37;;;;;;;;;;;9.50;99.90;9.70;99638.00;;;;330395;29;82535;-90
2022/10/01 00:55:54;;;;;;;;;;;9.50;99.90;9.80;99643.00;;;;330790;29;96361;-90
2022/10/01 00:56:06;;;;;;;;;;;9.50;99.90;9.70;99640.00;;;;332917;29;83466;-90
2022/10/01 00:56:17;;;;;;;;;;;9.50;99.90;9.80;99646.00;;;;332019;29;96553;-90
2022/10/01 00:56:29;;;;;;;;;;;9.50;99.90;9.70;99640.00;;;;330352;29;82627;-90
2022/10/01 00:56:41;;;;;;;;;;;9.50;99.90;9.80;99645.00;;;;329637;29;94981;-90
2022/10/01 00:56:53;;;;;;;;;;;9.50;99.90;9.80;99652.00;;;;335475;29;82483;-90
2022/10/01 00:57:05;;;;;;;;;;;9.50;99.90;9.80;99646.00;;;;329550;29;96467;-90
2022/10/01 00:57:18;;;;;;;;;;;9.50;99.90;9.80;99648.00;;;;331388;29;83496;-90
2022/10/01 00:57:30;;;;;;;;;;;9.50;99.90;9.80;99650.00;;;;330723;29;97370;-90
2022/10/01 00:57:42;;;;;;;;;;;9.50;99.90;9.80;99638.00;;;;330302;29;83594;-90
2022/10/01 00:57:53;;;;;;;;;;;9.50;99.90;9.80;99651.00;;;;332009;29;96588;-90
2022/10/01 00:58:06;;;;;;;;;;;9.40;99.90;9.80;99640.00;;;;331610;29;83467;-90
2022/10/01 00:58:18;;;;;;;;;;;9.50;99.90;9.80;99648.00;;;;330827;29;94030;-90
2022/10/01 00:58:30;;;;;;;;;;;9.40;99.90;9.80;99655.00;;;;332846;29;82612;-90
2022/10/01 00:58:42;;;;;;;;;;;9.40;99.90;9.70;99655.00;;;;330880;29;95521;-90
2022/10/01 00:58:54;;;;;;;;;;;9.40;99.90;9.70;99647.00;;;;332836;29;83359;-90
2022/10/01 00:59:06;;;;;;;;;;;9.40;99.90;9.70;99652.00;;;;330833;29;95325;-90
2022/10/01 00:59:18;;;;;;;;;;;9.40;99.90;9.70;99648.00;;;;332699;29;82736;-89
2022/10/01 00:59:30;;;;;;;;;;;9.40;99.90;9.70;99654.00;;;;332122;29;97371;-90
2022/10/01 00:59:41;;;;;;;;;;;9.40;99.90;9.60;99653.00;;;;331542;29;83490;-89
2022/10/01 00:59:54;;;;;;;;;;;9.40;99.90;9.60;99658.00;;;;332121;29;95390;-90
2022/10/01 01:00:07;;;;;;;;;;;9.40;99.90;9.60;99654.00;;;;332891;29;82606;-90
2022/10/01 01:00:19;;;;;;;;;;;9.40;99.90;9.70;99650.00;;;;330773;29;96446;-90
2022/10/01 01:00:31;;;;;;;;;;;9.40;99.90;9.70;99655.00;;;;330333;29;83457;-90
2022/10/01 01:00:43;;;;;;;;;;;9.40;99.90;9.70;99653.00;;;;333442;29;96562;-90
2022/10/01 01:00:57;;;;;;;;;;;9.40;99.90;9.70;99652.00;;;;334034;29;83497;-90
2022/10/01 01:01:09;;;;;;;;;;;9.40;99.90;9.80;99661.00;;;;331774;29;96401;-90
2022/10/01 01:01:21;;;;;;;;;;;9.40;99.90;9.80;99655.00;;;;332773;29;83448;-89
2022/10/01 01:01:33;;;;;;;;;;;9.40;99.90;9.90;99647.00;;;;332058;29;96656;-90
2022/10/01 01:01:46;;;;;;;;;;;9.40;99.90;9.90;99653.00;;;;332919;29;83446;-90
2022/10/01 01:01:58;;;;;;;;;;;9.40;99.90;10.00;99651.00;;;;334708;29;95788;-90
2022/10/01 01:02:10;;;;;;;;;;;9.40;99.90;10.00;99647.00;;;;331605;29;83448;-90
2022/10/01 01:02:22;;;;;;;;;;;9.40;99.90;9.90;99644.00;;;;333092;29;95541;-89
2022/10/01 01:02:33;;;;;;;;;;;9.40;99.90;9.90;99651.00;;;;335225;29;83575;-90
2022/10/01 01:02:45;;;;;;;;;;;9.40;99.90;9.80;99651.00;;;;331967;29;95424;-90
2022/10/01 01:02:57;;;;;;;;;;;9.40;99.90;9.80;99654.00;;;;331333;29;83659;-90
2022/10/01 01:03:09;;;;;;;;;;;9.40;99.90;9.90;99655.00;;;;330803;29;95349;-90
2022/10/01 01:03:21;;;;;;;;;;;9.40;99.90;9.80;99652.00;;;;331598;29;83527;-90
2022/10/01 01:03:33;;;;;;;;;;;9.40;99.90;9.80;99649.00;;;;331893;29;96512;-90
2022/10/01 01:03:45;;;;;;;;;;;9.40;99.90;9.80;99656.00;;;;331604;29;83476;-90
2022/10/01 01:03:56;;;;;;;;;;;9.40;99.90;9.80;99644.00;;;;332090;29;96412;-90
2022/10/01 01:04:15;;;;;;;;;;;9.40;99.90;9.70;99648.00;;;;332892;29;83482;-90
2022/10/01 01:04:27;;;;;;;;;;;9.40;99.90;9.80;99652.00;;;;329557;29;96414;-90
2022/10/01 01:04:39;;;;;;;;;;;9.40;99.90;9.70;99652.00;;;;330401;29;82599;-90
2022/10/01 01:04:51;;;;;;;;;;;9.40;99.90;9.80;99657.00;;;;333418;29;96707;-90
2022/10/01 01:05:03;;;;;;;;;;;9.40;99.90;9.80;99655.00;;;;334004;29;83576;-90
2022/10/01 01:05:15;;;;;;;;;;;9.40;99.90;9.80;99664.00;;;;332123;29;95183;-90
2022/10/01 01:05:27;;;;;;;;;;;9.40;99.90;9.80;99654.00;;;;331593;29;82596;-90
2022/10/01 01:05:38;;;;;;;;;;;9.40;99.90;9.70;99650.00;;;;333153;29;97135;-90
2022/10/01 01:05:50;;;;;;;;;;;9.40;99.90;9.80;99651.00;;;;331659;29;82542;-90
2022/10/01 01:06:02;;;;;;;;;;;9.40;99.90;9.80;99651.00;;;;329637;29;96852;-90
2022/10/01 01:06:14;;;;;;;;;;;9.40;99.90;9.80;99647.00;;;;334185;29;83421;-90
2022/10/01 01:06:25;;;;;;;;;;;9.40;99.90;9.80;99647.00;;;;333373;29;96640;-90